Time;durP1;ratioP1;P1;durP2;ratioP2;P2;SDS_P1;SDS_P2;PMS_P1;PMS_P2;Temp;Humidity;BMP_temperature;BMP_pressure;BME280_temperature;BME280_humidity;BME280_pressure;Samples;Min_cycle;Max_cycle;Signal;HPM_P1;HPM_P2
2021/01/29 00:01:00;;;;;;;17.73;4.05;;;;;;;6.08;89.40;98334.81;4976680;28;20561;-34
2021/01/29 00:03:29;;;;;;;13.40;4.63;;;;;;;6.13;88.99;98339.97;4974701;28;20121;-34
2021/01/29 00:06:04;;;;;;;9.35;3.53;;;;;;;6.15;89.12;98334.84;4976042;28;20038;-34
2021/01/29 00:08:35;;;;;;;14.02;4.95;;;;;;;6.15;88.78;98327.16;4976164;28;20046;-34
2021/01/29 00:11:08;;;;;;;20.60;4.50;;;;;;;6.13;89.29;98321.13;4976076;28;20427;-34
2021/01/29 00:13:37;;;;;;;15.27;4.63;;;;;;;6.16;88.81;98309.13;4974581;28;20035;-34
2021/01/29 00:16:11;;;;;;;10.80;4.10;;;;;;;6.19;89.02;98313.44;4991033;28;20054;-34
2021/01/29 00:18:39;;;;;;;14.57;4.10;;;;;;;6.19;88.74;98300.56;4975834;28;20042;-34
2021/01/29 00:21:10;;;;;;;11.07;4.18;;;;;;;6.18;89.33;98289.44;4990940;28;20049;-34
2021/01/29 00:23:44;;;;;;;12.50;4.00;;;;;;;6.18;88.95;98283.41;4975771;28;20031;-35
2021/01/29 00:26:15;;;;;;;12.65;3.30;;;;;;;6.17;89.24;98280.00;4975186;28;20053;-34
2021/01/29 00:28:43;;;;;;;13.27;3.55;;;;;;;6.21;89.29;98278.28;4975935;28;20035;-34
2021/01/29 00:31:14;;;;;;;10.77;4.07;;;;;;;6.20;89.20;98264.56;4975514;28;20074;-34
2021/01/29 00:33:45;;;;;;;12.00;3.63;;;;;;;6.21;88.74;98262.84;4975672;28;20486;-34
2021/01/29 00:36:16;;;;;;;15.07;4.80;;;;;;;6.20;89.18;98255.97;4975249;28;20118;-35
2021/01/29 00:38:48;;;;;;;11.63;3.70;;;;;;;6.22;89.16;98252.59;4975774;28;20101;-34
2021/01/29 00:41:23;;;;;;;22.17;3.85;;;;;;;6.24;89.24;98237.13;4975728;28;20049;-34
2021/01/29 00:43:54;;;;;;;13.32;3.50;;;;;;;6.30;89.58;98238.88;4975407;28;20066;-34
2021/01/29 00:46:28;;;;;;;14.60;4.35;;;;;;;6.22;89.40;98226.84;4975623;28;20125;-34
2021/01/29 00:48:56;;;;;;;15.52;4.65;;;;;;;6.23;89.55;98214.84;4974927;28;20065;-34
2021/01/29 00:51:30;;;;;;;19.80;3.58;;;;;;;6.26;89.16;98209.72;4975311;28;20034;-34
2021/01/29 00:53:58;;;;;;;10.57;4.10;;;;;;;6.23;89.11;98200.25;4957757;28;20125;-34
2021/01/29 00:56:31;;;;;;;12.45;3.88;;;;;;;6.25;89.30;98193.41;4975123;28;20042;-34
2021/01/29 00:59:02;;;;;;;12.20;4.20;;;;;;;6.23;89.39;98187.38;4974116;28;20058;-34
2021/01/29 01:01:33;;;;;;;17.63;4.13;;;;;;;6.26;89.35;98173.69;4973540;28;20054;-35
2021/01/29 01:04:06;;;;;;;13.97;4.07;;;;;;;6.25;89.64;98164.25;4974030;28;20047;-34
2021/01/29 01:06:38;;;;;;;11.07;3.67;;;;;;;6.26;89.25;98163.41;4974827;28;20291;-34
2021/01/29 01:09:06;;;;;;;9.32;3.33;;;;;;;6.27;89.69;98162.56;4975228;28;20046;-34
2021/01/29 01:11:39;;;;;;;10.60;4.10;;;;;;;6.30;89.57;98144.56;4973882;28;20035;-35
2021/01/29 01:14:10;;;;;;;8.85;3.85;;;;;;;6.34;89.42;98146.25;4973964;28;20097;-34
2021/01/29 01:16:40;;;;;;;13.48;3.92;;;;;;;6.37;89.92;98135.97;4974972;28;20386;-34
2021/01/29 01:19:10;;;;;;;8.10;4.30;;;;;;;6.44;90.08;98133.44;4974826;28;20050;-34
2021/01/29 01:21:39;;;;;;;9.85;3.80;;;;;;;6.38;89.53;98126.56;4973837;28;20486;-34
2021/01/29 01:24:07;;;;;;;15.20;4.10;;;;;;;6.45;89.79;98115.41;4973616;28;20557;-34
2021/01/29 01:26:39;;;;;;;9.93;3.15;;;;;;;6.42;89.56;98115.41;4974787;28;20038;-35
2021/01/29 01:29:07;;;;;;;8.15;3.50;;;;;;;6.47;89.87;98108.56;4990353;28;20038;-35
2021/01/29 01:31:38;;;;;;;12.07;4.55;;;;;;;6.50;90.01;98098.28;4974345;28;20038;-35
2021/01/29 01:34:07;;;;;;;9.30;3.70;;;;;;;6.47;89.84;98098.25;4974798;28;20038;-35
2021/01/29 01:36:35;;;;;;;11.30;4.15;;;;;;;6.51;90.08;98089.69;4974452;28;20039;-34
2021/01/29 01:39:04;;;;;;;12.52;3.55;;;;;;;6.51;89.60;98081.97;4989618;28;20041;-35
2021/01/29 01:41:37;;;;;;;9.48;3.47;;;;;;;6.50;89.74;98076.81;4974850;28;20039;-34
2021/01/29 01:44:33;;;;;;;6.88;3.80;;;;;;;6.54;90.21;98078.53;4974472;28;20045;-33
2021/01/29 01:47:08;;;;;;;12.05;3.47;;;;;;;6.56;89.58;98061.38;4970287;28;20051;-34
2021/01/29 01:49:36;;;;;;;7.88;2.90;;;;;;;6.52;89.66;98049.38;4974788;28;20070;-34
2021/01/29 01:52:25;;;;;;;5.82;2.92;;;;;;;6.49;89.82;98039.94;4974531;28;20049;-34
2021/01/29 01:54:58;;;;;;;5.47;2.67;;;;;;;6.52;89.85;98041.63;4973425;28;20402;-34
2021/01/29 01:57:25;;;;;;;6.70;2.97;;;;;;;6.55;89.64;98033.94;4974592;28;20070;-34
2021/01/29 02:00:16;;;;;;;8.52;3.03;;;;;;;6.51;89.84;98030.50;4957109;28;20039;-34
2021/01/29 02:02:46;;;;;;;2.70;1.90;;;;;;;6.48;89.10;98021.91;4974638;28;20082;-34
2021/01/29 02:05:21;;;;;;;3.28;1.85;;;;;;;6.47;89.65;98022.75;4974623;28;20050;-34
2021/01/29 02:07:53;;;;;;;5.32;2.00;;;;;;;6.46;89.68;98013.34;4989641;28;20502;-34
2021/01/29 02:10:25;;;;;;;5.38;2.03;;;;;;;6.49;89.80;98011.63;4974151;28;20035;-35
2021/01/29 02:12:56;;;;;;;6.03;2.40;;;;;;;6.52;89.41;98009.06;4989831;28;20098;-34
2021/01/29 02:15:33;;;;;;;4.63;2.10;;;;;;;6.52;89.23;97995.31;4973434;28;20122;-34
2021/01/29 02:18:20;;;;;;;3.72;2.25;;;;;;;6.53;89.54;97973.88;4974416;28;20101;-34
2021/01/29 02:21:13;;;;;;;6.45;2.08;;;;;;;6.57;89.75;97972.13;4974103;28;20061;-35
2021/01/29 02:24:20;;;;;;;4.80;2.10;;;;;;;6.60;89.86;97962.72;4974783;28;20443;-34
2021/01/29 02:27:06;;;;;;;3.75;1.60;;;;;;;6.62;89.92;97953.25;4974885;28;20117;-34
2021/01/29 02:29:59;;;;;;;2.30;1.58;;;;;;;6.67;90.22;97955.84;4978211;28;20038;-34
2021/01/29 02:33:03;;;;;;;2.05;1.58;;;;;;;6.67;89.81;97936.09;4976659;28;20046;-34
2021/01/29 02:36:13;;;;;;;2.55;1.80;;;;;;;6.69;90.15;97941.25;4977326;28;20051;-34
2021/01/29 02:38:51;;;;;;;3.17;1.92;;;;;;;6.70;90.57;97924.91;4967150;28;20557;-34
2021/01/29 02:41:29;;;;;;;3.47;1.83;;;;;;;6.70;89.77;97915.50;4977722;28;20090;-34
2021/01/29 02:44:26;;;;;;;4.07;2.15;;;;;;;6.72;89.85;97909.50;4977133;28;20047;-35
2021/01/29 02:47:02;;;;;;;5.28;2.17;;;;;;;6.70;90.10;97886.31;4976259;28;20038;-34
2021/01/29 02:49:49;;;;;;;3.80;1.70;;;;;;;6.74;90.11;97880.28;4976472;28;20043;-34
2021/01/29 02:52:26;;;;;;;7.38;2.03;;;;;;;6.74;90.41;97882.03;4977690;28;20129;-34
2021/01/29 02:55:02;;;;;;;3.05;1.75;;;;;;;6.70;89.88;97869.16;4977492;28;20035;-34
2021/01/29 02:57:55;;;;;;;3.30;1.95;;;;;;;6.73;90.04;97850.25;4976317;28;20034;-34
2021/01/29 03:00:30;;;;;;;4.35;2.42;;;;;;;6.65;90.04;97834.84;4976922;28;20035;-34
2021/01/29 03:03:09;;;;;;;3.45;2.13;;;;;;;6.65;89.86;97827.13;4977243;28;20394;-34
2021/01/29 03:05:59;;;;;;;4.35;2.10;;;;;;;6.71;90.09;97833.97;4992023;28;20066;-34
2021/01/29 03:08:41;;;;;;;5.97;2.95;;;;;;;6.73;89.78;97805.66;4977367;28;20099;-34
2021/01/29 03:11:29;;;;;;;7.07;3.45;;;;;;;6.75;89.85;97804.78;4976971;28;20038;-35
2021/01/29 03:14:25;;;;;;;5.50;3.45;;;;;;;6.74;90.00;97802.22;4976371;28;20561;-34
2021/01/29 03:16:57;;;;;;;5.32;3.70;;;;;;;6.80;90.09;97781.56;4959515;28;20078;-34
2021/01/29 03:19:40;;;;;;;7.57;3.00;;;;;;;6.78;89.90;97773.88;4976917;28;20035;-35
2021/01/29 03:22:15;;;;;;;6.43;3.83;;;;;;;6.85;90.09;97769.53;4977133;28;20039;-35
2021/01/29 03:24:54;;;;;;;6.93;3.50;;;;;;;6.88;90.03;97772.09;4976885;28;20031;-34
2021/01/29 03:27:35;;;;;;;10.18;4.25;;;;;;;6.89;90.45;97758.38;4977015;28;20483;-34
2021/01/29 03:30:12;;;;;;;4.15;2.58;;;;;;;6.90;90.02;97754.94;4977066;28;20112;-35
2021/01/29 03:32:46;;;;;;;3.92;2.30;;;;;;;6.86;89.76;97748.09;4976911;28;20082;-34
2021/01/29 03:35:35;;;;;;;3.42;2.30;;;;;;;6.87;89.91;97742.06;4976887;28;20062;-34
2021/01/29 03:38:10;;;;;;;4.20;2.20;;;;;;;6.89;90.05;97745.50;4970744;28;20058;-35
2021/01/29 03:40:44;;;;;;;2.35;1.80;;;;;;;6.90;90.34;97731.75;4976419;28;20169;-34
2021/01/29 03:43:32;;;;;;;2.40;1.65;;;;;;;6.93;90.31;97721.41;4976913;28;20050;-34
2021/01/29 03:46:18;;;;;;;2.83;1.92;;;;;;;6.95;90.19;97724.00;4975560;28;20380;-34
2021/01/29 03:49:21;;;;;;;3.88;1.98;;;;;;;6.92;90.27;97722.31;4976192;28;20035;-35
2021/01/29 03:52:12;;;;;;;2.42;1.73;;;;;;;6.95;90.16;97729.16;4962051;28;20058;-34
2021/01/29 03:54:50;;;;;;;3.38;1.65;;;;;;;6.95;90.27;97721.41;4976373;28;20039;-35
2021/01/29 03:57:18;;;;;;;1.83;1.20;;;;;;;6.94;90.24;97717.97;4976810;28;20070;-34
2021/01/29 04:00:01;;;;;;;3.83;1.95;;;;;;;6.88;89.98;97705.16;4976412;28;20039;-34
2021/01/29 04:02:39;;;;;;;2.95;1.63;;;;;;;6.88;89.75;97702.59;4976368;28;20133;-34
2021/01/29 04:05:18;;;;;;;2.00;1.38;;;;;;;6.93;89.87;97690.50;4975832;28;20047;-34
2021/01/29 04:08:01;;;;;;;3.70;1.70;;;;;;;6.97;90.23;97702.50;4990697;28;20043;-34
2021/01/29 04:10:34;;;;;;;2.05;1.27;;;;;;;6.90;89.66;97742.06;4976183;28;20482;-33
2021/01/29 04:13:10;;;;;;;3.05;1.30;;;;;;;6.91;89.55;97738.63;4975745;28;20483;-33
2021/01/29 04:15:38;;;;;;;2.20;1.40;;;;;;;6.93;89.94;97742.00;4990998;28;20039;-33
2021/01/29 04:18:22;;;;;;;2.15;1.65;;;;;;;6.97;90.13;97754.00;4974784;28;20046;-33
2021/01/29 04:21:00;;;;;;;2.35;1.40;;;;;;;6.95;90.21;97740.28;4975968;28;20169;-33
2021/01/29 04:23:37;;;;;;;1.38;0.98;;;;;;;6.91;89.65;97743.78;4976024;28;20043;-34
2021/01/29 04:26:16;;;;;;;2.78;1.15;;;;;;;6.96;90.06;97742.00;4975877;28;20038;-35
2021/01/29 04:28:49;;;;;;;1.83;1.30;;;;;;;6.94;90.06;97748.88;4975998;28;20064;-35
2021/01/29 04:31:17;;;;;;;2.00;1.20;;;;;;;6.93;90.03;97744.59;4975558;28;20082;-35
2021/01/29 04:33:53;;;;;;;2.08;1.40;;;;;;;6.89;89.88;97755.78;4974387;28;20494;-35
2021/01/29 04:36:27;;;;;;;2.53;1.20;;;;;;;6.91;89.79;97764.38;4975177;28;20088;-35
2021/01/29 04:39:16;;;;;;;1.88;1.10;;;;;;;6.93;89.69;97766.91;4974839;28;20042;-33
2021/01/29 04:42:00;;;;;;;2.20;1.35;;;;;;;6.94;89.84;97771.22;4974941;28;20061;-35
2021/01/29 04:45:02;;;;;;;2.78;1.50;;;;;;;6.95;90.16;97780.66;4975406;28;20034;-33
2021/01/29 04:47:35;;;;;;;1.85;1.38;;;;;;;6.96;89.93;97784.94;4975653;28;20039;-34
2021/01/29 04:50:40;;;;;;;2.10;1.60;;;;;;;6.92;89.54;97766.09;4973706;28;20035;-34
2021/01/29 04:53:27;;;;;;;1.63;1.40;;;;;;;6.93;90.11;97775.50;4973841;28;20863;-33
2021/01/29 04:56:21;;;;;;;4.25;1.50;;;;;;;6.93;90.28;97767.75;4975149;28;20069;-34
2021/01/29 04:59:06;;;;;;;1.80;1.20;;;;;;;6.97;89.96;97778.94;4973867;28;20030;-35
2021/01/29 05:01:46;;;;;;;4.28;1.40;;;;;;;6.97;89.89;97782.34;4975137;28;20134;-35
2021/01/29 05:04:41;;;;;;;2.25;1.65;;;;;;;7.00;89.76;97787.47;4975337;28;20034;-35
2021/01/29 05:07:59;;;;;;;7.82;1.73;;;;;;;7.00;89.75;97772.03;4957813;28;20142;-35
2021/01/29 05:10:39;;;;;;;4.18;1.90;;;;;;;6.95;89.64;97785.81;4918373;29;20115;-36
2021/01/29 05:13:31;;;;;;;3.45;1.80;;;;;;;6.94;89.42;97779.78;4934632;29;20504;-35
2021/01/29 05:16:14;;;;;;;5.22;1.88;;;;;;;6.97;89.73;97792.66;4967231;28;20047;-35
2021/01/29 05:18:58;;;;;;;6.57;2.92;;;;;;;6.95;89.83;97784.06;4974690;28;20039;-35
2021/01/29 05:22:14;;;;;;;7.47;2.22;;;;;;;6.93;89.72;97798.66;4975165;28;20035;-35
2021/01/29 05:25:00;;;;;;;5.68;2.28;;;;;;;6.96;89.39;97808.13;4974761;28;20066;-35
2021/01/29 05:27:34;;;;;;;9.15;2.55;;;;;;;6.96;89.59;97824.41;4975083;28;20031;-35
2021/01/29 05:30:02;;;;;;;7.40;2.70;;;;;;;6.95;89.59;97814.97;4974853;28;20047;-35
2021/01/29 05:32:42;;;;;;;3.80;2.03;;;;;;;6.95;89.08;97822.69;4974666;28;20031;-35
2021/01/29 05:35:26;;;;;;;6.85;2.30;;;;;;;6.95;89.49;97822.69;4957106;28;20034;-35
2021/01/29 05:38:03;;;;;;;8.47;2.33;;;;;;;6.94;89.11;97833.00;4975008;28;20034;-35
2021/01/29 05:41:03;;;;;;;4.82;2.00;;;;;;;6.91;89.02;97833.91;4973469;28;20055;-35
2021/01/29 05:43:59;;;;;;;4.45;2.03;;;;;;;6.92;89.33;97838.19;4972995;28;20070;-35
2021/01/29 05:46:45;;;;;;;8.52;1.83;;;;;;;6.92;89.19;97835.63;4974778;28;20035;-35
2021/01/29 05:49:46;;;;;;;5.38;2.03;;;;;;;6.92;89.33;97845.91;4974834;28;20507;-35
2021/01/29 05:52:26;;;;;;;8.07;2.40;;;;;;;6.89;89.26;97853.66;4961568;28;20047;-35
2021/01/29 05:55:29;;;;;;;4.82;2.38;;;;;;;6.89;89.00;97853.66;4975101;28;20098;-34
2021/01/29 05:58:01;;;;;;;13.63;2.97;;;;;;;6.89;89.14;97850.19;4973438;28;20027;-35
2021/01/29 06:01:02;;;;;;;6.20;2.00;;;;;;;6.89;89.33;97843.34;4975695;28;20065;-35
2021/01/29 06:03:46;;;;;;;6.45;2.03;;;;;;;6.92;89.21;97847.63;4961821;28;20049;-35
2021/01/29 06:06:33;;;;;;;6.97;2.67;;;;;;;6.88;89.23;97849.34;4978521;28;20039;-35
2021/01/29 06:09:28;;;;;;;11.07;2.67;;;;;;;6.81;89.27;97847.66;4977412;28;20039;-35
2021/01/29 06:12:31;;;;;;;12.38;2.90;;;;;;;6.84;89.12;97845.06;4972884;28;20055;-35
2021/01/29 06:15:31;;;;;;;10.73;2.63;;;;;;;6.86;89.36;97851.06;4976839;28;20082;-34
2021/01/29 06:18:15;;;;;;;13.07;3.00;;;;;;;6.84;89.03;97842.50;4978635;28;20035;-35
2021/01/29 06:21:14;;;;;;;11.30;2.83;;;;;;;6.83;89.30;97849.38;4978440;28;20039;-35
2021/01/29 06:23:52;;;;;;;14.38;3.35;;;;;;;6.84;89.29;97851.09;4978325;28;20035;-34
2021/01/29 06:26:55;;;;;;;12.55;3.50;;;;;;;6.85;89.33;97850.19;4977658;28;20118;-35
2021/01/29 06:29:29;;;;;;;14.27;3.30;;;;;;;6.85;88.62;97852.78;4977670;28;20077;-36
2021/01/29 06:32:24;;;;;;;19.88;4.55;;;;;;;6.87;88.85;97850.22;4977919;28;20046;-35
2021/01/29 06:35:40;;;;;;;13.77;3.45;;;;;;;6.90;88.95;97855.34;4978205;28;20129;-35
2021/01/29 06:38:31;;;;;;;21.40;4.50;;;;;;;6.89;88.56;97866.53;4969437;28;20054;-35
2021/01/29 06:41:02;;;;;;;18.85;3.92;;;;;;;6.89;88.80;97858.78;4978120;28;20074;-34
2021/01/29 06:44:05;;;;;;;19.00;3.63;;;;;;;6.91;89.08;97887.97;4977825;28;20050;-34
2021/01/29 06:46:37;;;;;;;19.27;4.68;;;;;;;6.91;88.79;97877.69;4976477;28;20039;-35
2021/01/29 06:49:24;;;;;;;15.23;4.18;;;;;;;6.93;88.97;97900.84;4977759;28;20099;-35
2021/01/29 06:51:55;;;;;;;25.83;5.10;;;;;;;6.94;88.72;97893.09;4977542;28;20483;-35
2021/01/29 06:54:53;;;;;;;30.55;4.47;;;;;;;6.96;88.42;97890.53;4976490;28;20043;-34
2021/01/29 06:57:31;;;;;;;22.00;5.32;;;;;;;6.92;88.50;97892.28;4977853;28;20045;-35
2021/01/29 07:00:34;;;;;;;22.65;4.55;;;;;;;6.91;88.59;97898.28;4977691;28;20034;-35
2021/01/29 07:03:37;;;;;;;22.75;4.63;;;;;;;6.89;88.40;97902.56;4976874;28;20050;-35
2021/01/29 07:06:02;;;;;;;21.17;5.30;;;;;;;6.88;88.64;97918.00;4977389;28;20078;-35
2021/01/29 07:09:06;;;;;;;24.98;4.25;;;;;;;6.86;88.63;97918.88;4977398;28;20066;-34
2021/01/29 07:11:58;;;;;;;31.02;5.13;;;;;;;6.86;88.51;97926.59;4976320;28;20043;-34
2021/01/29 07:14:55;;;;;;;26.25;4.75;;;;;;;6.87;88.57;97940.34;4977369;28;20050;-35
2021/01/29 07:17:34;;;;;;;29.10;4.45;;;;;;;6.86;88.43;97936.06;4977048;28;20063;-34
2021/01/29 07:20:16;;;;;;;25.67;7.20;;;;;;;6.85;88.45;97944.63;4976504;28;20077;-35
2021/01/29 07:23:15;;;;;;;35.58;7.28;;;;;;;6.86;88.53;97956.66;4976913;28;20398;-35
2021/01/29 07:26:05;;;;;;;28.42;6.32;;;;;;;6.86;88.25;97959.22;4976675;28;20061;-34
2021/01/29 07:28:52;;;;;;;36.53;6.18;;;;;;;6.88;88.01;97967.81;4977085;28;20070;-35
2021/01/29 07:31:42;;;;;;;31.88;6.43;;;;;;;6.86;87.93;97972.09;4975919;28;20073;-35
2021/01/29 07:34:23;;;;;;;32.40;6.78;;;;;;;6.84;87.95;97978.97;4959542;28;20392;-35
2021/01/29 07:37:08;;;;;;;30.48;5.28;;;;;;;6.83;88.01;97985.84;4975789;28;20037;-35
2021/01/29 07:40:02;;;;;;;29.85;6.03;;;;;;;6.83;88.22;97987.56;4976742;28;20043;-35
2021/01/29 07:42:53;;;;;;;25.02;5.22;;;;;;;6.83;87.94;97980.69;4976214;28;20026;-34
2021/01/29 07:45:24;;;;;;;39.17;7.18;;;;;;;6.83;88.08;97997.84;4976967;28;20046;-35
2021/01/29 07:48:38;;;;;;;29.90;4.72;;;;;;;6.82;87.85;97991.88;4975596;28;20039;-35
2021/01/29 07:51:15;;;;;;;30.80;6.53;;;;;;;6.82;87.72;97993.56;4974866;28;20042;-35
2021/01/29 07:54:02;;;;;;;29.25;5.63;;;;;;;6.83;87.41;98003.88;4976622;28;20039;-35
2021/01/29 07:57:05;;;;;;;33.17;5.47;;;;;;;6.82;87.63;98011.59;4975425;28;20046;-35
2021/01/29 07:59:57;;;;;;;33.70;6.00;;;;;;;6.81;87.13;98012.44;4976179;28;20035;-35
2021/01/29 08:02:48;;;;;;;27.40;4.88;;;;;;;6.81;87.22;98030.47;4975063;28;20069;-35
2021/01/29 08:05:28;;;;;;;38.88;6.50;;;;;;;6.81;87.35;98026.19;4975505;28;20054;-35
2021/01/29 08:08:05;;;;;;;34.00;6.05;;;;;;;6.80;87.58;98028.75;4974711;28;20042;-35
2021/01/29 08:10:36;;;;;;;30.73;4.70;;;;;;;6.77;87.64;98026.19;4976352;28;20042;-35
2021/01/29 08:13:10;;;;;;;33.63;5.75;;;;;;;6.79;87.44;98027.91;4976402;28;20101;-35
2021/01/29 08:15:47;;;;;;;;;;;;;;;6.79;87.53;98022.75;4975438;28;20066;-35
2021/01/29 08:18:28;;;;;;;31.27;6.53;;;;;;;6.77;86.96;98032.19;4976186;28;19922;-35
2021/01/29 08:21:28;;;;;;;42.25;6.18;;;;;;;6.78;87.09;98028.75;4976094;28;20398;-34
2021/01/29 08:24:05;;;;;;;40.33;6.63;;;;;;;6.77;87.03;98044.22;4976270;28;20034;-35
2021/01/29 08:26:40;;;;;;;30.65;4.80;;;;;;;6.77;87.36;98041.66;4975526;28;20043;-35
2021/01/29 08:29:32;;;;;;;29.00;5.93;;;;;;;6.76;87.02;98022.75;4974895;28;20071;-35
2021/01/29 08:31:57;;;;;;;32.90;6.22;;;;;;;6.74;87.24;98034.75;4975822;28;20078;-35
2021/01/29 08:34:40;;;;;;;30.27;6.88;;;;;;;6.72;87.13;98045.94;4974375;28;20077;-35
2021/01/29 08:37:21;;;;;;;38.72;6.57;;;;;;;6.74;87.20;98057.94;4958194;28;20380;-35
2021/01/29 08:39:58;;;;;;;32.65;5.78;;;;;;;6.73;87.05;98038.19;4976277;28;20073;-34
2021/01/29 08:42:48;;;;;;;31.60;6.20;;;;;;;6.73;87.00;98050.22;4974529;28;20085;-35
2021/01/29 08:45:55;;;;;;;40.60;6.60;;;;;;;6.75;87.18;98040.78;4975557;28;20050;-35
2021/01/29 08:48:51;;;;;;;42.05;6.25;;;;;;;6.75;86.71;98045.94;4945854;28;20059;-35
2021/01/29 08:51:37;;;;;;;30.63;6.97;;;;;;;6.74;86.80;98049.38;4975379;28;20038;-35
2021/01/29 08:54:17;;;;;;;46.97;8.57;;;;;;;6.73;87.13;98055.38;4975380;28;20035;-35
2021/01/29 08:57:01;;;;;;;40.80;6.78;;;;;;;6.75;86.98;98053.66;4974877;28;20129;-35
2021/01/29 08:59:35;;;;;;;39.15;7.10;;;;;;;6.74;87.06;98055.38;4959755;28;20047;-35
2021/01/29 09:02:19;;;;;;;44.53;7.22;;;;;;;6.74;86.93;98054.53;4974941;28;20557;-35
2021/01/29 09:04:50;;;;;;;38.85;7.63;;;;;;;6.75;87.18;98049.34;4975024;28;20414;-35
2021/01/29 09:07:23;;;;;;;24.35;6.00;;;;;;;6.74;86.85;98059.66;4973972;28;20039;-35
2021/01/29 09:09:50;;;;;;;35.33;5.85;;;;;;;6.74;87.08;98045.06;4975448;28;20125;-34
2021/01/29 09:12:31;;;;;;;29.80;6.45;;;;;;;6.76;86.93;98060.53;4974564;28;20626;-34
2021/01/29 09:15:04;;;;;;;40.55;7.35;;;;;;;6.74;86.87;98052.78;4974751;28;20031;-34
2021/01/29 09:17:43;;;;;;;34.08;6.90;;;;;;;6.75;86.84;98051.09;4975305;28;20096;-35
2021/01/29 09:20:22;;;;;;;38.42;5.85;;;;;;;6.74;87.54;98054.53;4974920;28;20031;-34
2021/01/29 09:23:17;;;;;;;43.90;7.25;;;;;;;6.74;87.12;98062.25;4974790;28;20153;-34
2021/01/29 09:26:10;;;;;;;38.92;6.47;;;;;;;6.73;87.35;98070.81;4974379;28;20078;-35
2021/01/29 09:28:41;;;;;;;27.38;6.13;;;;;;;6.73;87.33;98065.69;4973828;28;20043;-35
2021/01/29 09:31:21;;;;;;;46.17;8.48;;;;;;;6.75;87.23;98072.53;4973516;28;20033;-34
2021/01/29 09:34:09;;;;;;;42.80;7.45;;;;;;;6.77;87.08;98072.53;4973592;28;20046;-35
2021/01/29 09:36:47;;;;;;;32.53;6.72;;;;;;;6.81;87.25;98069.97;4974482;28;20039;-35
2021/01/29 09:39:22;;;;;;;34.88;6.07;;;;;;;6.81;87.48;98074.25;4973532;28;20035;-35
2021/01/29 09:41:56;;;;;;;34.97;6.00;;;;;;;6.83;87.50;98073.41;4974679;28;20027;-34
2021/01/29 09:44:29;;;;;;;;;;;;;;;6.80;87.46;98069.94;4975174;28;20039;-34
2021/01/29 09:46:58;;;;;;;33.95;5.70;;;;;;;6.78;87.17;98075.13;4990085;28;19914;-34
2021/01/29 09:49:29;;;;;;;35.25;6.95;;;;;;;6.81;87.12;98072.53;4973323;28;20126;-35
2021/01/29 09:52:00;;;;;;;34.47;6.53;;;;;;;6.84;87.60;98080.28;4974096;28;20121;-35
2021/01/29 09:54:42;;;;;;;24.00;5.78;;;;;;;6.82;87.68;98083.69;4973305;28;20031;-35
2021/01/29 09:57:19;;;;;;;24.23;5.13;;;;;;;6.79;87.49;98083.69;4989781;28;20038;-35
2021/01/29 09:59:53;;;;;;;26.77;4.50;;;;;;;6.82;87.83;98079.41;4973387;28;20058;-35
2021/01/29 10:02:45;;;;;;;24.35;5.22;;;;;;;6.84;87.92;98088.00;4974137;28;20079;-34
2021/01/29 10:05:31;;;;;;;29.33;4.95;;;;;;;6.86;87.98;98093.13;4943557;28;20051;-35
2021/01/29 10:08:08;;;;;;;28.05;5.28;;;;;;;6.84;87.81;98093.16;4989567;28;20510;-35
2021/01/29 10:10:39;;;;;;;28.38;4.65;;;;;;;6.84;87.80;98085.41;4974511;28;20031;-35
2021/01/29 10:13:22;;;;;;;20.50;4.90;;;;;;;6.86;87.63;98080.25;4974313;28;20066;-35
2021/01/29 10:16:10;;;;;;;19.73;5.75;;;;;;;6.85;87.80;98096.56;4989640;28;20057;-35
2021/01/29 10:18:38;;;;;;;25.80;4.60;;;;;;;6.86;87.79;98103.44;4974422;28;20078;-34
2021/01/29 10:21:14;;;;;;;19.27;4.95;;;;;;;6.88;87.63;98103.41;4973063;28;20055;-35
2021/01/29 10:24:07;;;;;;;25.58;5.25;;;;;;;6.92;87.69;98094.84;4973144;28;20054;-35
2021/01/29 10:26:38;;;;;;;21.25;5.47;;;;;;;6.98;87.74;98110.31;4957046;28;20498;-35
2021/01/29 10:29:19;;;;;;;26.40;6.55;;;;;;;7.03;87.94;98106.00;4973185;28;20043;-35
2021/01/29 10:31:47;;;;;;;18.75;4.55;;;;;;;7.06;88.10;98097.41;4974225;28;20047;-35
2021/01/29 10:34:50;;;;;;;25.30;6.95;;;;;;;7.02;87.88;98101.69;4974171;28;20034;-35
2021/01/29 10:37:19;;;;;;;40.28;6.55;;;;;;;7.10;87.96;98106.84;4969853;28;20058;-35
2021/01/29 10:40:12;;;;;;;24.83;4.13;;;;;;;7.15;88.00;98103.44;4973716;28;20039;-35
2021/01/29 10:42:53;;;;;;;22.77;4.93;;;;;;;7.18;87.58;98107.69;4972672;28;20070;-35
2021/01/29 10:45:32;;;;;;;22.52;4.45;;;;;;;7.14;87.81;98105.97;4989153;28;20046;-35
2021/01/29 10:48:17;;;;;;;29.10;5.95;;;;;;;7.09;87.64;98106.00;4974871;28;20039;-35
2021/01/29 10:50:56;;;;;;;22.83;5.45;;;;;;;7.08;87.89;98113.75;4977652;28;20085;-35
2021/01/29 10:53:28;;;;;;;27.65;5.88;;;;;;;7.08;87.73;98116.31;4977791;28;20089;-35
2021/01/29 10:55:56;;;;;;;26.30;5.22;;;;;;;7.08;87.94;98121.47;4977143;28;20038;-35
2021/01/29 10:58:40;;;;;;;31.73;6.65;;;;;;;7.08;87.98;98119.72;4977345;28;20039;-34
2021/01/29 11:01:23;;;;;;;29.98;6.75;;;;;;;7.05;87.86;98116.31;4976109;28;20046;-34
2021/01/29 11:04:03;;;;;;;31.13;5.30;;;;;;;7.00;87.86;98109.44;4977321;28;20121;-35
2021/01/29 11:06:39;;;;;;;29.83;6.03;;;;;;;7.02;87.71;98106.84;4975961;28;20058;-35
2021/01/29 11:09:15;;;;;;;34.15;7.38;;;;;;;7.00;88.01;98108.59;4976033;28;20062;-35
2021/01/29 11:11:49;;;;;;;30.55;6.75;;;;;;;7.01;88.00;98100.84;4977491;28;20042;-35
2021/01/29 11:14:30;;;;;;;31.15;6.13;;;;;;;6.99;87.99;98110.28;4976110;28;20477;-35
2021/01/29 11:17:06;;;;;;;27.77;5.03;;;;;;;7.02;88.06;98106.84;4976103;28;20043;-34
2021/01/29 11:19:39;;;;;;;31.38;7.00;;;;;;;7.02;88.00;98112.00;4976614;28;20031;-35
2021/01/29 11:22:17;;;;;;;34.73;6.13;;;;;;;6.97;87.62;98109.44;4991659;28;20070;-35
2021/01/29 11:24:57;;;;;;;29.00;6.80;;;;;;;6.97;87.91;98112.00;4976876;28;20298;-35
2021/01/29 11:27:38;;;;;;;36.53;6.50;;;;;;;7.01;88.11;98097.41;4959364;28;20033;-35
2021/01/29 11:30:09;;;;;;;37.72;8.30;;;;;;;7.10;87.86;98110.28;4976384;28;20058;-34
2021/01/29 11:32:44;;;;;;;30.38;6.72;;;;;;;7.19;87.59;98108.53;4976812;28;20035;-35
2021/01/29 11:35:46;;;;;;;30.42;5.80;;;;;;;7.21;87.58;98097.41;4975310;28;20549;-35
2021/01/29 11:38:22;;;;;;;31.67;6.30;;;;;;;7.18;87.47;98104.25;4959818;28;20074;-35
2021/01/29 11:41:14;;;;;;;33.88;6.70;;;;;;;7.17;87.87;98105.97;4975649;28;20499;-34
2021/01/29 11:44:04;;;;;;;30.25;6.05;;;;;;;7.22;87.71;98100.81;4975755;28;20077;-35
2021/01/29 11:46:54;;;;;;;32.28;5.45;;;;;;;7.18;87.86;98102.56;4959607;28;20070;-35
2021/01/29 11:49:26;;;;;;;34.05;5.18;;;;;;;7.19;87.66;98096.53;4976495;28;20039;-35
2021/01/29 11:51:51;;;;;;;36.75;6.10;;;;;;;7.22;87.30;98091.38;4975059;28;20544;-35
2021/01/29 11:54:33;;;;;;;30.13;5.90;;;;;;;7.23;87.62;98093.09;4976488;28;20039;-35
2021/01/29 11:57:14;;;;;;;31.98;7.15;;;;;;;7.17;87.52;98095.69;4976408;28;20039;-35
2021/01/29 12:00:07;;;;;;;26.35;6.10;;;;;;;7.19;87.41;98099.13;4990497;28;20409;-35
2021/01/29 12:03:01;;;;;;;26.15;5.53;;;;;;;7.15;87.03;98092.25;4991238;28;20050;-35
2021/01/29 12:05:56;;;;;;;39.88;5.68;;;;;;;7.16;87.44;98088.81;4975172;28;20093;-35
2021/01/29 12:08:56;;;;;;;32.55;6.88;;;;;;;7.10;87.49;98092.25;4985684;28;20055;-34
2021/01/29 12:11:41;;;;;;;34.47;5.78;;;;;;;7.08;87.15;98090.56;4975743;28;20528;-35
2021/01/29 12:14:54;;;;;;;31.17;6.47;;;;;;;7.06;87.09;98079.38;4976186;28;20031;-35
2021/01/29 12:17:40;;;;;;;30.20;5.85;;;;;;;7.05;87.69;98087.97;4953733;28;20422;-35
2021/01/29 12:20:26;;;;;;;43.85;6.28;;;;;;;7.03;87.41;98076.81;4975147;28;20034;-34
2021/01/29 12:23:19;;;;;;;32.83;5.93;;;;;;;7.03;88.02;98074.25;4974572;28;20050;-35
2021/01/29 12:26:15;;;;;;;26.77;5.20;;;;;;;7.06;87.81;98080.22;4975135;28;20074;-34
2021/01/29 12:28:59;;;;;;;21.10;5.18;;;;;;;7.09;87.76;98066.47;4974834;28;20130;-35
2021/01/29 12:31:45;;;;;;;25.38;4.95;;;;;;;7.09;87.34;98056.19;4976265;28;20046;-35
2021/01/29 12:34:23;;;;;;;21.10;4.53;;;;;;;7.11;87.15;98057.03;4973976;28;20038;-35
2021/01/29 12:37:26;;;;;;;18.15;3.80;;;;;;;7.09;86.93;98048.44;4974483;28;20072;-34
2021/01/29 12:40:00;;;;;;;24.85;4.35;;;;;;;7.07;86.76;98048.47;4975968;28;20041;-35
2021/01/29 12:42:44;;;;;;;17.80;3.72;;;;;;;7.06;86.95;98046.75;4990592;28;20073;-35
2021/01/29 12:45:23;;;;;;;24.65;4.93;;;;;;;7.12;87.13;98051.03;4975534;28;20034;-34